createdAt,value
2023-04-03T00:01:18.508Z,87.40
2023-04-03T00:03:45.263Z,87.00
2023-04-03T00:06:12.944Z,86.50
2023-04-03T00:08:41.281Z,86.70
2023-04-03T00:11:08.819Z,86.90
2023-04-03T00:13:36.006Z,86.90
2023-04-03T00:16:04.252Z,86.00
2023-04-03T00:18:31.393Z,86.20
2023-04-03T00:20:58.578Z,86.00
2023-04-03T00:23:25.354Z,86.10
2023-04-03T00:25:52.949Z,86.00
2023-04-03T00:28:19.724Z,86.40
2023-04-03T00:30:47.527Z,86.00
2023-04-03T00:33:14.878Z,86.00
2023-04-03T00:35:42.596Z,86.40
2023-04-03T00:38:09.671Z,85.80
2023-04-03T00:40:39.899Z,85.90
2023-04-03T00:43:19.743Z,85.20
2023-04-03T00:45:49.560Z,85.30
2023-04-03T00:48:44.128Z,85.50
2023-04-03T00:51:16.532Z,84.60
2023-04-03T00:53:49.937Z,84.90
2023-04-03T00:56:19.389Z,84.80
2023-04-03T00:58:55.572Z,84.80
2023-04-03T01:01:26.094Z,84.80
2023-04-03T01:03:53.467Z,84.50
2023-04-03T01:06:27.427Z,84.30
2023-04-03T01:08:55.306Z,83.40
2023-04-03T01:11:22.764Z,83.70
2023-04-03T01:13:50.147Z,83.70
2023-04-03T01:16:17.346Z,83.50
2023-04-03T01:18:46.497Z,83.90
2023-04-03T01:21:37.826Z,83.60
2023-04-03T01:24:12.215Z,83.30
2023-04-03T01:26:39.761Z,83.80
2023-04-03T01:29:07.113Z,83.70
2023-04-03T01:31:36.996Z,83.90
2023-04-03T01:34:04.561Z,83.90
2023-04-03T01:36:33.058Z,83.70
2023-04-03T01:39:00.834Z,83.20
2023-04-03T01:41:28.392Z,83.80
2023-04-03T01:43:55.284Z,83.70
2023-04-03T01:46:22.980Z,83.50
2023-04-03T01:48:50.275Z,83.60
2023-04-03T01:51:17.361Z,84.10
2023-04-03T01:53:44.354Z,84.10
2023-04-03T01:56:11.176Z,84.00
2023-04-03T01:58:39.407Z,83.90
2023-04-03T02:01:07.081Z,83.50
2023-04-03T02:03:34.105Z,83.90
2023-04-03T02:06:00.942Z,84.00
2023-04-03T02:08:27.692Z,83.80
2023-04-03T02:10:54.656Z,83.90
2023-04-03T02:13:21.863Z,83.90
2023-04-03T02:15:48.784Z,83.60
2023-04-03T02:18:16.150Z,83.80
2023-04-03T02:20:43.092Z,83.90
2023-04-03T02:23:10.309Z,84.10
2023-04-03T02:25:38.566Z,84.00
2023-04-03T02:28:06.107Z,83.80
2023-04-03T02:30:33.111Z,83.90
2023-04-03T02:32:59.896Z,83.80
2023-04-03T02:35:27.026Z,84.10
2023-04-03T02:37:53.901Z,83.80
2023-04-03T02:40:20.860Z,83.40
2023-04-03T02:42:47.730Z,83.70
2023-04-03T02:45:14.562Z,84.00
2023-04-03T02:47:41.422Z,83.90
2023-04-03T02:50:08.629Z,84.10
2023-04-03T02:52:35.885Z,83.70
2023-04-03T02:55:02.719Z,84.20
2023-04-03T02:57:29.656Z,84.00
2023-04-03T02:59:56.443Z,84.00
2023-04-03T03:02:23.238Z,83.90
2023-04-03T03:04:50.043Z,83.90
2023-04-03T03:07:16.857Z,83.90
2023-04-03T03:09:43.589Z,84.00
2023-04-03T03:12:10.443Z,83.90
2023-04-03T03:14:37.157Z,84.30
2023-04-03T03:17:03.908Z,83.90
2023-04-03T03:19:30.831Z,84.30
2023-04-03T03:21:58.103Z,83.90
2023-04-03T03:24:25.010Z,84.20
2023-04-03T03:26:51.778Z,84.30
2023-04-03T03:29:18.566Z,84.50
2023-04-03T03:31:45.721Z,84.70
2023-04-03T03:34:12.870Z,84.60
2023-04-03T03:36:40.056Z,84.10
2023-04-03T03:39:06.868Z,84.50
2023-04-03T03:41:33.590Z,85.50
2023-04-03T03:44:01.006Z,84.50
2023-04-03T03:46:27.897Z,84.70
2023-04-03T03:48:54.756Z,84.50
2023-04-03T03:51:21.564Z,84.80
2023-04-03T03:53:48.399Z,85.10
2023-04-03T03:56:15.413Z,84.60
2023-04-03T03:58:42.188Z,85.00
2023-04-03T04:01:09.071Z,85.60
2023-04-03T04:03:35.945Z,85.50
2023-04-03T04:06:02.844Z,85.90
2023-04-03T04:08:29.643Z,85.80
2023-04-03T04:10:56.677Z,86.00
2023-04-03T04:13:23.526Z,86.20
2023-04-03T04:15:50.380Z,85.80
2023-04-03T04:18:17.183Z,86.10
2023-04-03T04:20:46.411Z,85.80
2023-04-03T04:23:13.133Z,85.80
2023-04-03T04:25:39.893Z,86.00
2023-04-03T04:28:06.928Z,86.10
2023-04-03T04:30:33.723Z,86.40
2023-04-03T04:33:00.922Z,85.80
2023-04-03T04:35:27.794Z,86.20
2023-04-03T04:37:54.862Z,85.80
2023-04-03T04:40:21.901Z,86.00
2023-04-03T04:42:48.699Z,86.10
2023-04-03T04:45:16.029Z,86.30
2023-04-03T04:47:43.241Z,86.50
2023-04-03T04:50:10.811Z,86.00
2023-04-03T04:52:37.532Z,86.50
2023-04-03T04:55:04.973Z,86.50
2023-04-03T04:57:31.902Z,86.40
2023-04-03T04:59:58.703Z,86.10
2023-04-03T05:02:25.637Z,85.90
2023-04-03T05:04:53.262Z,86.30
2023-04-03T05:07:20.257Z,86.40
2023-04-03T05:09:47.087Z,86.60
2023-04-03T05:12:13.851Z,86.10
2023-04-03T05:14:40.720Z,86.50
2023-04-03T05:17:07.982Z,86.60
2023-04-03T05:19:34.771Z,86.30
2023-04-03T05:22:01.518Z,86.60
2023-04-03T05:24:28.245Z,86.60
2023-04-03T05:26:55.280Z,86.70
2023-04-03T05:29:22.611Z,86.80
2023-04-03T05:31:52.501Z,86.80
2023-04-03T05:34:19.582Z,86.80
2023-04-03T05:36:46.518Z,86.50
2023-04-03T05:39:13.712Z,86.60
2023-04-03T05:41:40.851Z,86.60
2023-04-03T05:44:07.650Z,87.20
2023-04-03T05:46:34.432Z,87.10
2023-04-03T05:49:01.270Z,86.90
2023-04-03T05:51:35.874Z,86.90
2023-04-03T05:54:13.588Z,87.20
2023-04-03T05:56:40.509Z,86.40
2023-04-03T05:59:08.439Z,86.30
2023-04-03T06:01:35.491Z,86.40
2023-04-03T06:04:02.504Z,86.80
2023-04-03T06:06:54.570Z,86.50
2023-04-03T06:09:23.800Z,86.60
2023-04-03T06:11:50.584Z,86.60
2023-04-03T06:14:17.410Z,86.40
2023-04-03T06:16:44.729Z,86.50
2023-04-03T06:19:12.851Z,86.60
2023-04-03T06:21:40.014Z,86.50
2023-04-03T06:24:07.536Z,86.40
2023-04-03T06:26:35.379Z,87.20
2023-04-03T06:29:03.438Z,86.00
2023-04-03T06:31:30.883Z,86.20
2023-04-03T06:33:57.927Z,85.60
2023-04-03T06:36:25.229Z,85.90
2023-04-03T06:38:51.949Z,86.10
2023-04-03T06:41:18.747Z,86.10
2023-04-03T06:43:45.963Z,85.60
2023-04-03T06:46:21.597Z,85.90
2023-04-03T06:48:49.123Z,85.30
2023-04-03T06:51:28.597Z,86.20
2023-04-03T06:53:57.434Z,85.40
2023-04-03T06:56:24.980Z,85.00
2023-04-03T06:58:52.571Z,85.00
2023-04-03T07:01:23.169Z,85.20
2023-04-03T07:03:50.225Z,85.80
2023-04-03T07:06:18.087Z,85.40
2023-04-03T07:08:45.526Z,85.80
2023-04-03T07:11:13.204Z,86.10
2023-04-03T07:13:40.196Z,85.20
2023-04-03T07:16:08.052Z,84.70
2023-04-03T07:18:34.958Z,84.50
2023-04-03T07:21:01.862Z,84.30
2023-04-03T07:23:29.036Z,84.30
2023-04-03T07:25:56.196Z,84.10
2023-04-03T07:28:23.933Z,84.20
2023-04-03T07:31:00.708Z,84.10
2023-04-03T07:33:27.675Z,83.80
2023-04-03T07:35:54.516Z,83.80
2023-04-03T07:38:21.392Z,83.90
2023-04-03T07:40:49.750Z,83.60
2023-04-03T07:43:17.823Z,83.40
2023-04-03T07:45:44.892Z,84.30
2023-04-03T07:48:13.035Z,83.10
2023-04-03T07:50:43.149Z,82.90
2023-04-03T07:53:10.131Z,82.80
2023-04-03T07:55:43.805Z,82.30
2023-04-03T07:58:15.926Z,82.60
2023-04-03T08:00:43.016Z,81.60
2023-04-03T08:03:12.931Z,81.50
2023-04-03T08:05:41.728Z,81.50
2023-04-03T08:08:09.969Z,80.80
2023-04-03T08:10:36.835Z,80.00
2023-04-03T08:13:04.059Z,77.90
2023-04-03T08:15:32.422Z,77.50
2023-04-03T08:18:00.046Z,77.00
2023-04-03T08:20:27.586Z,76.70
2023-04-03T08:22:54.675Z,77.10
2023-04-03T08:25:21.718Z,77.30
2023-04-03T08:27:48.508Z,79.20
2023-04-03T08:30:15.589Z,78.00
2023-04-03T08:32:45.523Z,77.10
2023-04-03T08:35:12.825Z,75.90
2023-04-03T08:37:41.264Z,74.50
2023-04-03T08:40:13.834Z,75.60
2023-04-03T08:43:01.922Z,75.00
2023-04-03T08:45:46.892Z,74.50
2023-04-03T08:48:21.689Z,73.70
2023-04-03T08:50:54.096Z,72.90
2023-04-03T08:53:24.512Z,70.80
2023-04-03T08:55:52.559Z,70.80
2023-04-03T08:58:40.959Z,71.70
2023-04-03T09:01:20.164Z,70.30
2023-04-03T09:03:47.085Z,70.00
2023-04-03T09:06:27.399Z,69.90
2023-04-03T09:09:14.707Z,69.90
2023-04-03T09:11:50.254Z,69.70
2023-04-03T09:14:29.811Z,68.80
2023-04-03T09:17:04.296Z,68.70
2023-04-03T09:19:43.036Z,69.70
2023-04-03T09:22:13.589Z,68.90
2023-04-03T09:24:41.294Z,69.70
2023-04-03T09:27:13.122Z,69.20
2023-04-03T09:29:47.104Z,67.60
2023-04-03T09:32:30.942Z,67.60
2023-04-03T09:35:19.188Z,67.20
2023-04-03T09:37:55.176Z,68.40
2023-04-03T09:40:27.756Z,68.50
2023-04-03T09:43:01.364Z,67.40
2023-04-03T09:45:28.675Z,68.10
2023-04-03T09:48:16.713Z,67.70
2023-04-03T09:50:56.382Z,67.50
2023-04-03T09:53:33.059Z,67.40
2023-04-03T09:56:01.342Z,67.30
2023-04-03T09:58:46.628Z,66.50
2023-04-03T10:01:29.016Z,66.60
2023-04-03T10:04:14.217Z,67.50
2023-04-03T10:06:47.678Z,67.10
2023-04-03T10:09:34.954Z,67.50
2023-04-03T10:12:06.170Z,67.40
2023-04-03T10:14:34.766Z,68.00
2023-04-03T10:17:26.703Z,66.80
2023-04-03T10:20:15.720Z,68.00
2023-04-03T10:23:10.524Z,68.50
2023-04-03T10:25:56.091Z,67.60
2023-04-03T10:28:59.764Z,67.70
2023-04-03T10:31:36.059Z,66.50
2023-04-03T10:34:22.481Z,66.30
2023-04-03T10:36:58.420Z,65.00
2023-04-03T10:39:52.326Z,64.50
2023-04-03T10:42:40.879Z,64.90
2023-04-03T10:45:22.500Z,65.00
2023-04-03T10:47:58.101Z,64.90
2023-04-03T10:50:43.594Z,65.30
2023-04-03T10:53:36.976Z,65.40
2023-04-03T10:56:17.115Z,65.10
2023-04-03T10:58:58.853Z,63.80
2023-04-03T11:01:32.460Z,64.50
2023-04-03T11:04:02.899Z,63.40
2023-04-03T11:06:52.513Z,62.80
2023-04-03T11:09:45.282Z,63.30
2023-04-03T11:12:22.004Z,62.40
2023-04-03T11:14:52.763Z,61.50
2023-04-03T11:17:19.554Z,61.70
2023-04-03T11:19:50.055Z,62.40
2023-04-03T11:22:25.037Z,62.50
2023-04-03T11:25:07.709Z,62.40
2023-04-03T11:27:47.558Z,64.20
2023-04-03T11:30:23.651Z,63.10
2023-04-03T11:32:57.888Z,64.10
2023-04-03T11:35:26.520Z,64.10
2023-04-03T11:37:54.421Z,63.00
2023-04-03T11:40:29.114Z,61.60
2023-04-03T11:43:06.334Z,62.00
2023-04-03T11:45:38.375Z,61.80
2023-04-03T11:48:29.334Z,62.80
2023-04-03T11:50:57.815Z,62.30
2023-04-03T11:53:40.219Z,63.00
2023-04-03T11:56:25.898Z,62.90
2023-04-03T11:59:11.461Z,62.20
2023-04-03T12:01:59.181Z,61.50
2023-04-03T12:04:28.050Z,61.50
2023-04-03T12:07:19.970Z,61.70
2023-04-03T12:09:46.747Z,61.10
2023-04-03T12:12:35.604Z,61.40
2023-04-03T12:15:42.814Z,61.70
2023-04-03T12:18:45.043Z,61.50
2023-04-03T12:21:14.301Z,61.20
2023-04-03T12:23:58.196Z,59.50
2023-04-03T12:26:45.485Z,58.70
2023-04-03T12:29:43.915Z,59.50
2023-04-03T12:32:37.404Z,58.90
2023-04-03T12:35:19.586Z,59.40
2023-04-03T12:38:01.603Z,59.60
2023-04-03T12:40:42.986Z,60.00
2023-04-03T12:43:33.776Z,59.90
2023-04-03T12:46:09.815Z,59.70
2023-04-03T12:49:00.616Z,59.10
2023-04-03T12:51:39.081Z,59.50
2023-04-03T12:54:14.758Z,59.50
2023-04-03T12:56:41.870Z,58.90
2023-04-03T12:59:20.591Z,59.10
2023-04-03T13:02:03.092Z,58.60
2023-04-03T13:04:32.148Z,58.30
2023-04-03T13:06:59.926Z,58.40
2023-04-03T13:09:29.353Z,58.30
2023-04-03T13:12:04.063Z,58.30
2023-04-03T13:14:31.414Z,57.70
2023-04-03T13:16:59.494Z,57.70
2023-04-03T13:19:29.649Z,57.50
2023-04-03T13:22:07.156Z,57.70
2023-04-03T13:24:38.403Z,57.20
2023-04-03T13:27:06.854Z,57.60
2023-04-03T13:29:36.925Z,57.40
2023-04-03T13:32:05.969Z,57.40
2023-04-03T13:34:45.198Z,57.60
2023-04-03T13:37:34.479Z,56.90
2023-04-03T13:43:07.004Z,57.00
2023-04-03T13:45:36.116Z,55.80
2023-04-03T13:51:15.814Z,56.20
2023-04-03T13:53:44.809Z,56.90
2023-04-03T13:56:27.137Z,57.30
2023-04-03T13:59:04.786Z,57.00
2023-04-03T14:01:43.941Z,57.30
2023-04-03T14:04:20.930Z,58.20
2023-04-03T14:06:48.870Z,58.80
2023-04-03T14:09:18.039Z,58.00
2023-04-03T14:11:46.109Z,57.70
2023-04-03T14:14:22.392Z,57.90
2023-04-03T14:16:56.126Z,57.30
2023-04-03T14:19:36.760Z,57.00
2023-04-03T14:22:24.303Z,57.20
2023-04-03T14:24:52.683Z,57.30
2023-04-03T14:27:35.278Z,57.30
2023-04-03T14:30:04.611Z,58.00
2023-04-03T14:32:31.523Z,58.40
2023-04-03T14:34:59.312Z,58.50
2023-04-03T14:37:30.695Z,57.70
2023-04-03T14:39:58.959Z,58.30
2023-04-03T14:42:33.445Z,57.90
2023-04-03T14:45:01.780Z,57.40
2023-04-03T14:47:31.811Z,56.60
2023-04-03T14:50:01.873Z,56.80
2023-04-03T14:52:32.520Z,57.00
2023-04-03T14:55:01.381Z,57.50
2023-04-03T14:57:30.260Z,57.80
2023-04-03T14:59:57.534Z,56.00
2023-04-03T15:02:36.613Z,55.90
2023-04-03T15:05:06.286Z,56.90
2023-04-03T15:07:36.389Z,56.80
2023-04-03T15:10:25.427Z,57.30
2023-04-03T15:12:53.310Z,57.50
2023-04-03T15:15:22.250Z,57.40
2023-04-03T15:17:59.353Z,57.70
2023-04-03T15:20:31.435Z,57.70
2023-04-03T15:23:01.671Z,57.00
2023-04-03T15:25:29.057Z,57.20
2023-04-03T15:27:57.312Z,57.20
2023-04-03T15:30:24.188Z,57.20
2023-04-03T15:32:51.263Z,57.20
2023-04-03T15:35:18.160Z,57.20
2023-04-03T15:37:44.944Z,57.10
2023-04-03T15:40:12.190Z,57.40
2023-04-03T15:42:39.482Z,57.40
2023-04-03T15:45:07.044Z,57.00
2023-04-03T15:47:34.005Z,56.90
2023-04-03T15:50:01.251Z,57.00
2023-04-03T15:52:28.029Z,57.60
2023-04-03T15:54:54.753Z,57.30
2023-04-03T15:57:26.708Z,57.30
2023-04-03T15:59:54.143Z,56.70
2023-04-03T16:02:22.205Z,57.00
2023-04-03T16:04:49.173Z,57.00
2023-04-03T16:07:16.009Z,56.60
2023-04-03T16:09:42.849Z,57.00
2023-04-03T16:12:09.570Z,56.50
2023-04-03T16:14:36.345Z,56.60
2023-04-03T16:17:03.508Z,56.70
2023-04-03T16:19:30.860Z,57.20
2023-04-03T16:21:57.944Z,57.50
2023-04-03T16:24:24.824Z,57.60
2023-04-03T16:26:51.653Z,57.50
2023-04-03T16:29:18.504Z,57.90
2023-04-03T16:31:45.629Z,58.10
2023-04-03T16:34:13.078Z,57.90
2023-04-03T16:36:40.098Z,57.80
2023-04-03T16:39:06.971Z,58.30
2023-04-03T16:41:33.771Z,58.10
2023-04-03T16:44:00.605Z,58.10
2023-04-03T16:46:27.671Z,57.90
2023-04-03T16:48:54.498Z,57.60
2023-04-03T16:51:21.412Z,57.70
2023-04-03T16:53:48.197Z,57.80
2023-04-03T16:56:14.959Z,57.40
2023-04-03T16:58:41.832Z,57.70
2023-04-03T17:01:14.315Z,57.90
2023-04-03T17:03:41.361Z,58.20
2023-04-03T17:06:08.480Z,58.30
2023-04-03T17:08:35.584Z,57.70
2023-04-03T17:11:02.374Z,57.60
2023-04-03T17:13:32.948Z,57.90
2023-04-03T17:16:00.737Z,58.30
2023-04-03T17:18:28.247Z,57.80
2023-04-03T17:20:56.693Z,57.40
2023-04-03T17:23:25.809Z,57.80
2023-04-03T17:25:55.048Z,57.90
2023-04-03T17:28:28.260Z,57.90
2023-04-03T17:31:00.045Z,58.20
2023-04-03T17:33:28.453Z,58.30
2023-04-03T17:35:58.666Z,59.30
2023-04-03T17:38:25.518Z,58.60
2023-04-03T17:40:52.313Z,58.50
2023-04-03T17:43:19.062Z,58.10
2023-04-03T17:45:45.916Z,57.70
2023-04-03T17:48:12.889Z,57.30
2023-04-03T17:50:39.684Z,57.40
2023-04-03T17:53:06.473Z,57.70
2023-04-03T17:55:33.296Z,58.00
2023-04-03T17:58:00.046Z,58.10
2023-04-03T18:00:26.966Z,58.50
2023-04-03T18:02:54.764Z,58.80
2023-04-03T18:05:21.777Z,59.30
2023-04-03T18:07:49.992Z,59.30
2023-04-03T18:10:16.856Z,59.40
2023-04-03T18:12:44.046Z,59.50
2023-04-03T18:15:11.909Z,59.30
2023-04-03T18:17:38.813Z,59.80
2023-04-03T18:20:06.481Z,59.90
2023-04-03T18:22:34.112Z,60.00
2023-04-03T18:25:00.935Z,60.10
2023-04-03T18:27:28.181Z,60.00
2023-04-03T18:30:00.408Z,60.20
2023-04-03T18:32:28.281Z,60.60
2023-04-03T18:34:56.153Z,60.90
2023-04-03T18:37:24.206Z,60.80
2023-04-03T18:39:51.086Z,60.60
2023-04-03T18:42:21.692Z,61.00
2023-04-03T18:44:52.876Z,60.60
2023-04-03T18:47:19.754Z,61.20
2023-04-03T18:49:47.482Z,60.90
2023-04-03T18:52:14.483Z,61.20
2023-04-03T18:54:42.817Z,61.20
2023-04-03T18:57:09.641Z,61.20
2023-04-03T18:59:37.553Z,61.20
2023-04-03T19:02:05.617Z,61.20
2023-04-03T19:04:32.490Z,61.40
2023-04-03T19:06:59.894Z,62.30
2023-04-03T19:09:26.744Z,61.80
2023-04-03T19:11:53.590Z,62.30
2023-04-03T19:14:20.544Z,63.10
2023-04-03T19:16:47.336Z,64.10
2023-04-03T19:19:14.192Z,64.60
2023-04-03T19:21:42.068Z,65.60
2023-04-03T19:24:13.005Z,66.20
2023-04-03T19:26:42.100Z,66.30
2023-04-03T19:29:09.444Z,66.50
2023-04-03T19:31:37.542Z,67.10
2023-04-03T19:34:05.368Z,67.70
2023-04-03T19:36:35.206Z,67.90
2023-04-03T19:39:02.564Z,68.40
2023-04-03T19:41:31.652Z,68.30
2023-04-03T19:43:58.660Z,68.80
2023-04-03T19:46:28.226Z,69.10
2023-04-03T19:48:55.395Z,69.10
2023-04-03T19:51:22.187Z,69.10
2023-04-03T19:53:49.149Z,68.80
2023-04-03T19:56:17.085Z,68.60
2023-04-03T19:58:44.685Z,68.40
2023-04-03T20:01:11.910Z,68.80
2023-04-03T20:03:39.226Z,69.00
2023-04-03T20:06:06.830Z,69.90
2023-04-03T20:08:33.788Z,69.10
2023-04-03T20:11:00.827Z,69.20
2023-04-03T20:13:27.639Z,68.80
2023-04-03T20:15:54.529Z,69.00
2023-04-03T20:18:21.490Z,68.80
2023-04-03T20:21:00.194Z,69.00
2023-04-03T20:23:27.561Z,69.20
2023-04-03T20:26:08.731Z,69.30
2023-04-03T20:28:38.853Z,69.20
2023-04-03T20:31:06.768Z,69.80
2023-04-03T20:33:33.934Z,69.80
2023-04-03T20:36:01.625Z,69.80
2023-04-03T20:38:28.646Z,70.10
2023-04-03T20:40:55.760Z,70.10
2023-04-03T20:43:23.812Z,69.90
2023-04-03T20:45:51.046Z,70.20
2023-04-03T20:48:18.541Z,70.40
2023-04-03T20:50:46.575Z,70.70
2023-04-03T20:53:15.024Z,70.30
2023-04-03T20:55:42.313Z,70.50
2023-04-03T20:58:09.625Z,70.50
2023-04-03T21:00:38.150Z,70.60
2023-04-03T21:03:05.787Z,71.00
2023-04-03T21:05:35.432Z,70.90
2023-04-03T21:08:40.423Z,71.10
2023-04-03T21:11:44.800Z,71.00
2023-04-03T21:14:49.529Z,71.20
2023-04-03T21:17:16.523Z,71.10
2023-04-03T21:19:46.553Z,71.50
2023-04-03T21:22:13.972Z,71.70
2023-04-03T21:24:41.064Z,72.00
2023-04-03T21:27:08.423Z,72.20
2023-04-03T21:29:35.308Z,72.60
2023-04-03T21:32:02.359Z,72.60
2023-04-03T21:34:31.366Z,72.80
2023-04-03T21:37:03.491Z,73.00
2023-04-03T21:39:31.141Z,72.90
2023-04-03T21:41:57.997Z,72.80
2023-04-03T21:44:27.700Z,72.90
2023-04-03T21:46:54.576Z,72.90
2023-04-03T21:49:22.572Z,73.10
2023-04-03T21:51:51.817Z,73.20
2023-04-03T21:54:19.696Z,73.20
2023-04-03T21:56:48.157Z,73.00
2023-04-03T21:59:15.932Z,72.90
2023-04-03T22:01:43.151Z,73.10
2023-04-03T22:04:10.016Z,73.50
2023-04-03T22:06:37.960Z,73.30
2023-04-03T22:09:04.942Z,73.70
2023-04-03T22:11:31.763Z,73.90
2023-04-03T22:13:58.567Z,73.80
2023-04-03T22:16:25.604Z,73.70
2023-04-03T22:18:53.032Z,74.10
2023-04-03T22:21:21.463Z,74.10
2023-04-03T22:23:48.294Z,74.10
2023-04-03T22:26:15.183Z,73.90
2023-04-03T22:28:47.396Z,74.20
2023-04-03T22:31:16.299Z,74.30
2023-04-03T22:33:44.836Z,74.80
2023-04-03T22:36:12.871Z,74.30
2023-04-03T22:38:43.062Z,74.40
2023-04-03T22:41:10.307Z,74.80
2023-04-03T22:43:38.067Z,74.40
2023-04-03T22:46:08.414Z,74.60
2023-04-03T22:48:35.843Z,74.80
2023-04-03T22:51:07.702Z,75.20
2023-04-03T22:53:35.078Z,76.30
2023-04-03T22:56:04.796Z,75.40
2023-04-03T22:58:31.776Z,75.20
2023-04-03T23:01:07.728Z,75.10
2023-04-03T23:03:36.158Z,75.70
2023-04-03T23:06:04.462Z,75.80
2023-04-03T23:08:32.693Z,75.70
2023-04-03T23:11:00.175Z,75.80
2023-04-03T23:13:27.734Z,76.00
2023-04-03T23:15:55.338Z,76.00
2023-04-03T23:18:22.949Z,76.20
2023-04-03T23:20:54.722Z,75.80
2023-04-03T23:23:23.557Z,76.10
2023-04-03T23:25:59.330Z,75.80
2023-04-03T23:28:27.339Z,76.00
2023-04-03T23:31:02.341Z,75.80
2023-04-03T23:33:31.198Z,76.10
2023-04-03T23:35:58.781Z,76.40
2023-04-03T23:38:26.131Z,76.10
2023-04-03T23:40:52.976Z,76.10
2023-04-03T23:43:20.726Z,76.10
2023-04-03T23:45:47.849Z,76.40
2023-04-03T23:48:15.017Z,76.20
2023-04-03T23:50:43.239Z,76.00
2023-04-03T23:53:10.185Z,76.70
2023-04-03T23:55:37.100Z,76.70
2023-04-03T23:58:03.881Z,77.10
